Time;durP1;ratioP1;P1;durP2;ratioP2;P2;SDS_P1;SDS_P2;PMS_P1;PMS_P2;Temp;Humidity;BMP_temperature;BMP_pressure;BME280_temperature;BME280_humidity;BME280_pressure;Samples;Min_cycle;Max_cycle;Signal;HPM_P1;HPM_P2
2023/05/31 00:00:45;;;;;;;5.90;3.22;;;;;;;13.98;51.50;98792.69;5056849;28;20050;-76
2023/05/31 00:03:10;;;;;;;5.20;2.65;;;;;;;14.06;51.44;98784.09;5073254;28;20054;-77
2023/05/31 00:05:36;;;;;;;7.93;2.55;;;;;;;14.04;51.35;98788.97;5040559;28;20465;-77
2023/05/31 00:08:01;;;;;;;5.25;2.70;;;;;;;14.15;50.78;98785.28;5058133;28;20040;-76
2023/05/31 00:10:26;;;;;;;6.07;2.40;;;;;;;13.98;51.82;98781.84;5043412;28;20021;-77
2023/05/31 00:12:52;;;;;;;4.47;2.80;;;;;;;13.77;53.09;98786.16;5011457;28;20051;-75
2023/05/31 00:15:17;;;;;;;7.13;2.88;;;;;;;13.87;52.53;98786.31;5064101;28;20027;-75
2023/05/31 00:17:42;;;;;;;6.03;2.70;;;;;;;13.84;52.78;98787.63;5091328;28;20036;-74
2023/05/31 00:20:08;;;;;;;5.95;2.90;;;;;;;13.00;55.40;98790.63;5073106;28;20017;-73
2023/05/31 00:22:33;;;;;;;6.50;2.60;;;;;;;13.50;52.75;98780.66;5056297;28;20115;-74
2023/05/31 00:24:59;;;;;;;5.05;2.80;;;;;;;13.34;54.65;98786.09;5072533;28;20031;-72
2023/05/31 00:27:24;;;;;;;4.97;2.70;;;;;;;13.27;54.32;98780.84;5056503;28;20031;-72
2023/05/31 00:29:50;;;;;;;7.28;2.60;;;;;;;13.38;54.09;98790.75;5058926;28;20025;-76
2023/05/31 00:32:15;;;;;;;5.40;2.30;;;;;;;13.29;54.62;98783.31;5037637;28;20036;-76
2023/05/31 00:34:41;;;;;;;6.82;2.65;;;;;;;13.04;55.31;98781.00;5053350;28;20365;-77
2023/05/31 00:37:06;;;;;;;7.53;2.80;;;;;;;12.85;56.23;98772.31;5024360;28;20048;-76
2023/05/31 00:39:32;;;;;;;4.80;2.58;;;;;;;12.64;57.07;98775.72;5036736;28;20074;-76
2023/05/31 00:41:57;;;;;;;5.20;2.58;;;;;;;12.97;55.39;98775.75;5035706;28;20127;-76
2023/05/31 00:44:23;;;;;;;6.10;3.20;;;;;;;12.92;55.49;98772.13;5032390;28;20025;-76
2023/05/31 00:46:48;;;;;;;6.63;3.10;;;;;;;12.96;54.67;98778.69;5068103;28;20032;-76
2023/05/31 00:49:14;;;;;;;6.35;2.78;;;;;;;12.96;55.47;98770.56;5030469;28;20567;-77
2023/05/31 00:51:39;;;;;;;5.60;2.47;;;;;;;12.94;55.53;98767.31;5039833;28;20054;-75
2023/05/31 00:54:05;;;;;;;4.05;2.80;;;;;;;13.03;55.42;98765.81;5040140;28;20059;-77
2023/05/31 00:56:31;;;;;;;4.55;2.55;;;;;;;12.90;55.66;98768.88;5066512;28;20035;-76
2023/05/31 00:58:57;;;;;;;6.68;3.20;;;;;;;12.71;56.50;98767.44;5047721;28;20024;-75
2023/05/31 01:01:32;;;;;;;7.50;2.85;;;;;;;12.88;55.04;98773.69;5056355;28;20445;-76
2023/05/31 01:03:59;;;;;;;5.20;3.13;;;;;;;12.95;54.78;98777.84;5035649;28;20056;-76
2023/05/31 01:06:25;;;;;;;5.93;2.97;;;;;;;12.94;54.56;98776.22;5019777;28;20037;-75
2023/05/31 01:08:54;;;;;;;5.97;2.80;;;;;;;13.28;52.49;98777.06;5019415;28;20036;-75
2023/05/31 01:11:29;;;;;;;7.15;2.65;;;;;;;13.26;52.63;98772.97;5036155;28;20032;-75
2023/05/31 01:14:10;;;;;;;4.93;2.70;;;;;;;13.04;52.91;98775.59;5035755;28;20080;-75
2023/05/31 01:16:41;;;;;;;6.78;2.85;;;;;;;12.96;52.98;98778.69;5024425;28;20086;-74
2023/05/31 01:19:15;;;;;;;5.75;2.67;;;;;;;13.08;51.50;98776.75;5038939;28;20033;-75
2023/05/31 01:21:57;;;;;;;6.57;2.85;;;;;;;13.25;51.20;98771.34;5036460;28;20043;-76
2023/05/31 01:24:44;;;;;;;5.70;2.67;;;;;;;13.55;51.03;98778.03;5035220;28;20083;-74
2023/05/31 01:27:10;;;;;;;4.38;2.80;;;;;;;13.35;52.30;98768.81;5038460;28;20041;-74
2023/05/31 01:29:36;;;;;;;3.95;2.20;;;;;;;13.31;52.32;98770.34;5022396;28;20085;-76
2023/05/31 01:32:03;;;;;;;6.53;2.50;;;;;;;13.11;54.19;98787.09;5038136;28;20041;-75
2023/05/31 01:34:28;;;;;;;6.10;2.70;;;;;;;13.11;54.31;98781.69;5035297;28;20364;-75
2023/05/31 01:36:54;;;;;;;5.88;2.90;;;;;;;12.95;54.60;98782.47;5064660;28;20094;-78
2023/05/31 01:39:19;;;;;;;3.88;2.85;;;;;;;12.90;55.02;98785.91;5075532;28;20024;-78
2023/05/31 01:41:45;;;;;;;6.95;3.10;;;;;;;12.96;54.17;98779.50;5039375;28;20037;-77
2023/05/31 01:44:13;;;;;;;6.90;3.10;;;;;;;12.90;54.28;98769.69;5036244;28;20398;-76
2023/05/31 01:46:40;;;;;;;5.07;2.80;;;;;;;12.18;56.36;98775.94;5039116;28;20029;-76
2023/05/31 01:49:07;;;;;;;7.00;2.97;;;;;;;12.48;56.73;98777.31;5036898;28;20025;-77
2023/05/31 01:51:32;;;;;;;4.38;2.67;;;;;;;12.78;55.18;98776.22;5035566;28;20410;-78
2023/05/31 01:53:58;;;;;;;4.75;2.60;;;;;;;12.70;55.12;98780.13;5035275;28;20029;-75
2023/05/31 01:56:25;;;;;;;3.90;2.75;;;;;;;12.64;55.48;98780.28;5033999;28;20033;-76
2023/05/31 01:58:53;;;;;;;6.05;3.08;;;;;;;12.55;55.89;98784.47;5034946;28;20027;-76
2023/05/31 02:01:19;;;;;;;7.43;3.00;;;;;;;12.27;56.33;98775.31;5038003;28;20033;-74
2023/05/31 02:03:44;;;;;;;6.65;2.97;;;;;;;12.26;56.09;98779.06;5034482;28;20035;-74
2023/05/31 02:06:13;;;;;;;7.35;3.15;;;;;;;12.24;56.87;98783.88;5050905;28;20036;-73
2023/05/31 02:08:38;;;;;;;6.18;2.80;;;;;;;12.38;56.49;98787.94;5034869;28;20482;-75
2023/05/31 02:11:05;;;;;;;5.82;2.80;;;;;;;12.33;56.45;98784.31;5038029;28;20119;-76
2023/05/31 02:13:31;;;;;;;7.10;2.92;;;;;;;12.09;58.09;98783.56;5034374;28;20115;-74
2023/05/31 02:15:57;;;;;;;5.07;2.90;;;;;;;12.17;58.28;98780.50;5051169;28;20066;-73
2023/05/31 02:18:26;;;;;;;4.60;3.25;;;;;;;12.10;58.09;98782.53;5034823;28;20139;-73
2023/05/31 02:20:52;;;;;;;5.70;2.80;;;;;;;11.54;59.70;98795.84;5051808;28;20029;-78
2023/05/31 02:23:18;;;;;;;7.65;3.30;;;;;;;11.67;59.12;98798.28;5034148;28;20025;-73
2023/05/31 02:25:48;;;;;;;5.38;3.20;;;;;;;11.59;59.64;98790.56;5052036;28;20032;-75
2023/05/31 02:28:14;;;;;;;6.28;3.08;;;;;;;11.64;59.28;98801.47;5034545;28;20033;-76
2023/05/31 02:30:40;;;;;;;6.40;2.95;;;;;;;11.99;58.09;98794.19;5037844;28;20021;-76
2023/05/31 02:33:08;;;;;;;5.35;3.13;;;;;;;11.67;58.77;98795.59;5034487;28;20029;-76
2023/05/31 02:35:34;;;;;;;7.35;3.25;;;;;;;11.45;60.29;98789.19;5033031;28;20146;-78
2023/05/31 02:37:59;;;;;;;6.53;3.30;;;;;;;11.72;58.15;98793.03;5026772;28;20437;-76
2023/05/31 02:40:25;;;;;;;5.82;3.13;;;;;;;11.50;59.37;98789.28;5034494;28;20024;-75
2023/05/31 02:42:50;;;;;;;6.47;3.08;;;;;;;11.79;57.93;98794.56;5063656;28;20040;-77
2023/05/31 02:45:16;;;;;;;8.20;3.30;;;;;;;11.69;58.58;98788.94;5053846;28;20025;-74
2023/05/31 02:47:41;;;;;;;6.93;3.00;;;;;;;11.98;57.40;98787.13;5037618;28;20486;-74
2023/05/31 02:50:09;;;;;;;7.43;3.08;;;;;;;11.93;57.84;98789.72;5034214;28;20048;-75
2023/05/31 02:52:38;;;;;;;5.43;3.35;;;;;;;11.93;56.96;98789.72;5025732;28;20039;-75
2023/05/31 02:55:12;;;;;;;6.35;3.00;;;;;;;12.25;56.02;98793.59;5018897;28;20436;-75
2023/05/31 02:57:56;;;;;;;5.30;3.08;;;;;;;11.99;56.05;98783.38;5022148;28;20490;-74
2023/05/31 03:00:21;;;;;;;5.72;3.30;;;;;;;12.11;55.92;98786.03;5044416;23;20057;-73
2023/05/31 03:02:46;;;;;;;5.93;3.42;;;;;;;12.06;55.33;98783.25;5031962;28;20029;-74
2023/05/31 03:05:29;;;;;;;5.60;3.15;;;;;;;12.09;56.22;98788.97;5023198;28;20037;-75
2023/05/31 03:07:55;;;;;;;5.72;2.70;;;;;;;12.25;55.05;98788.22;5005894;28;20037;-75
2023/05/31 03:10:21;;;;;;;5.38;3.00;;;;;;;12.22;55.25;98788.72;5011002;28;20059;-75
2023/05/31 03:12:46;;;;;;;6.75;3.30;;;;;;;12.25;54.95;98788.22;5001598;28;20399;-75
2023/05/31 03:15:12;;;;;;;6.47;3.35;;;;;;;11.79;55.24;98789.16;4992950;28;20022;-75
2023/05/31 03:17:38;;;;;;;4.50;2.85;;;;;;;12.02;55.41;98790.97;5001459;28;20041;-75
2023/05/31 03:20:09;;;;;;;7.15;3.50;;;;;;;12.16;54.67;98789.66;5005447;28;20028;-75
2023/05/31 03:22:35;;;;;;;5.82;3.03;;;;;;;12.16;55.05;98792.34;5005732;28;20033;-76
2023/05/31 03:25:03;;;;;;;6.43;2.85;;;;;;;12.00;55.64;98776.91;5017447;28;20394;-75
2023/05/31 03:27:29;;;;;;;7.30;3.30;;;;;;;12.15;54.76;98781.81;5018603;28;20033;-75
2023/05/31 03:29:55;;;;;;;7.05;3.35;;;;;;;12.05;54.51;98774.31;5002342;28;20032;-74
2023/05/31 03:32:21;;;;;;;6.35;3.10;;;;;;;11.89;55.46;98783.16;5029368;28;20111;-74
2023/05/31 03:34:48;;;;;;;6.45;3.00;;;;;;;11.74;57.33;98780.13;4981202;28;20025;-74
2023/05/31 03:37:13;;;;;;;5.97;3.40;;;;;;;11.96;55.43;98778.44;5044233;28;20108;-74
2023/05/31 03:39:42;;;;;;;5.50;2.83;;;;;;;11.93;54.59;98773.53;4982654;28;20044;-74
2023/05/31 03:42:11;;;;;;;4.97;2.83;;;;;;;12.11;54.99;98786.03;5014397;28;20033;-73
2023/05/31 03:44:37;;;;;;;7.03;2.80;;;;;;;12.13;53.97;98779.34;4997071;28;20441;-75
2023/05/31 03:47:02;;;;;;;7.95;3.28;;;;;;;12.17;54.73;98790.47;5014362;28;20037;-74
2023/05/31 03:49:28;;;;;;;5.25;3.05;;;;;;;12.13;56.08;98792.03;4998147;28;20034;-74
2023/05/31 03:51:55;;;;;;;5.57;2.95;;;;;;;12.13;55.37;98787.44;4998164;28;20035;-75
2023/05/31 03:54:20;;;;;;;7.22;3.00;;;;;;;12.00;54.51;98784.19;4997513;28;20029;-75
2023/05/31 03:56:45;;;;;;;6.55;3.10;;;;;;;12.02;54.96;98785.59;5014938;28;20103;-75
2023/05/31 03:59:11;;;;;;;6.35;3.08;;;;;;;11.98;55.61;98786.31;4981821;28;20021;-74
2023/05/31 04:01:37;;;;;;;6.82;3.13;;;;;;;11.98;55.82;98787.13;4981929;28;20062;-74
2023/05/31 04:04:02;;;;;;;7.15;2.70;;;;;;;12.24;54.55;98786.59;4997112;28;20030;-74
2023/05/31 04:06:30;;;;;;;6.40;3.15;;;;;;;12.19;54.57;98783.78;4997708;28;20061;-73
2023/05/31 04:08:55;;;;;;;8.82;3.30;;;;;;;12.38;53.81;98787.94;4998466;28;20119;-74
2023/05/31 04:11:21;;;;;;;6.18;2.92;;;;;;;12.49;52.41;98791.63;4998575;28;20037;-73
2023/05/31 04:13:47;;;;;;;6.57;3.15;;;;;;;12.30;53.16;98774.81;4998202;28;20437;-73
2023/05/31 04:16:12;;;;;;;6.63;2.90;;;;;;;12.34;53.69;98784.09;4997999;28;20248;-73
2023/05/31 04:18:37;;;;;;;4.28;2.80;;;;;;;12.76;52.91;98786.47;4998371;28;20036;-74
2023/05/31 04:21:03;;;;;;;5.07;2.78;;;;;;;12.91;51.92;98786.72;4981607;28;20041;-74
2023/05/31 04:23:29;;;;;;;5.88;2.95;;;;;;;12.64;52.47;98797.34;5012861;28;20120;-74
2023/05/31 04:25:55;;;;;;;5.60;2.83;;;;;;;12.87;52.83;98790.97;5015728;28;20033;-74
2023/05/31 04:28:22;;;;;;;7.55;3.08;;;;;;;12.64;53.71;98791.94;5034506;28;20025;-74
2023/05/31 04:30:47;;;;;;;8.40;2.92;;;;;;;12.47;54.21;98799.16;5016762;28;20033;-74
2023/05/31 04:33:13;;;;;;;6.88;3.17;;;;;;;12.35;54.19;98793.81;5016646;28;20029;-74
2023/05/31 04:35:40;;;;;;;5.30;2.75;;;;;;;12.38;54.17;98792.50;5022381;28;20029;-74
2023/05/31 04:38:07;;;;;;;7.20;3.28;;;;;;;12.09;55.33;98805.16;5006675;28;20083;-75
2023/05/31 04:40:32;;;;;;;4.47;2.65;;;;;;;12.00;55.54;98803.06;5022021;28;20033;-75
2023/05/31 04:43:00;;;;;;;5.30;3.00;;;;;;;12.34;55.16;98807.56;4992119;28;20029;-75
2023/05/31 04:45:28;;;;;;;8.02;3.33;;;;;;;12.55;55.08;98806.91;5008631;28;20036;-75
2023/05/31 04:47:55;;;;;;;7.07;2.97;;;;;;;12.76;54.29;98810.78;5021674;28;20025;-75
2023/05/31 04:50:20;;;;;;;7.93;3.40;;;;;;;12.66;54.70;98814.13;5000585;28;20621;-74
2023/05/31 04:52:46;;;;;;;6.05;3.00;;;;;;;12.95;52.74;98804.88;5030321;28;20099;-73
2023/05/31 04:55:12;;;;;;;4.57;2.70;;;;;;;12.92;53.27;98804.56;5029285;28;20390;-74
2023/05/31 04:57:37;;;;;;;7.35;2.70;;;;;;;13.12;53.31;98810.34;5036004;28;20017;-75
2023/05/31 05:00:09;;;;;;;4.05;2.65;;;;;;;13.16;53.77;98800.69;5007177;28;20033;-75
2023/05/31 05:02:37;;;;;;;5.72;3.00;;;;;;;13.17;52.92;98799.63;5036609;28;20037;-75
2023/05/31 05:05:06;;;;;;;4.35;2.85;;;;;;;13.34;52.99;98815.84;4999917;28;20033;-75
2023/05/31 05:07:32;;;;;;;4.55;2.75;;;;;;;13.54;53.16;98814.25;5002095;28;20156;-75
2023/05/31 05:09:57;;;;;;;6.47;2.28;;;;;;;13.77;52.52;98805.94;5001061;28;20056;-75
2023/05/31 05:12:22;;;;;;;7.40;2.70;;;;;;;14.08;51.23;98809.03;5014722;28;20032;-74
2023/05/31 05:14:49;;;;;;;5.10;2.90;;;;;;;14.15;51.45;98815.91;5024094;28;20024;-73
2023/05/31 05:17:14;;;;;;;3.03;2.10;;;;;;;14.47;48.65;98802.50;5035182;28;20475;-73
2023/05/31 05:19:39;;;;;;;3.55;2.15;;;;;;;14.63;48.98;98812.44;5024160;28;20024;-73
2023/05/31 05:22:05;;;;;;;4.53;2.75;;;;;;;14.76;48.29;98822.88;5041987;28;20029;-74
2023/05/31 05:24:30;;;;;;;6.07;2.80;;;;;;;14.77;48.05;98818.28;5007267;28;20063;-75
2023/05/31 05:26:56;;;;;;;4.57;2.35;;;;;;;15.02;47.71;98816.63;4990572;28;20038;-75
2023/05/31 05:29:21;;;;;;;6.50;2.60;;;;;;;15.11;46.89;98819.69;5014904;28;20017;-75
2023/05/31 05:31:48;;;;;;;4.28;2.42;;;;;;;15.05;46.55;98809.88;5017387;28;20470;-74
2023/05/31 05:34:16;;;;;;;3.97;2.83;;;;;;;15.21;46.73;98814.34;5007532;28;20111;-75
2023/05/31 05:36:42;;;;;;;4.07;2.50;;;;;;;15.24;47.40;98814.63;5018048;28;20108;-75
2023/05/31 05:39:09;;;;;;;5.05;2.38;;;;;;;15.44;47.30;98819.44;5023326;28;20440;-76
2023/05/31 05:41:34;;;;;;;6.18;2.80;;;;;;;15.31;48.60;98821.75;5033982;28;20028;-73
2023/05/31 05:44:00;;;;;;;4.63;2.50;;;;;;;15.39;47.67;98821.25;5010168;28;20138;-73
2023/05/31 05:46:26;;;;;;;5.35;2.72;;;;;;;15.58;47.53;98817.91;5013114;28;20029;-74
2023/05/31 05:48:52;;;;;;;4.07;2.42;;;;;;;15.66;49.13;98816.63;5035543;28;20440;-74
2023/05/31 05:51:20;;;;;;;6.70;2.92;;;;;;;16.00;47.06;98817.91;5035479;28;20508;-74
2023/05/31 05:53:46;;;;;;;6.85;2.33;;;;;;;15.83;45.65;98817.25;5011847;28;20487;-74
2023/05/31 05:56:17;;;;;;;4.32;2.47;;;;;;;16.05;46.22;98831.50;5010697;28;20036;-74
2023/05/31 05:58:48;;;;;;;6.47;2.40;;;;;;;16.01;44.75;98824.94;5007365;28;20080;-74
2023/05/31 06:01:20;;;;;;;6.65;2.83;;;;;;;16.43;45.04;98822.97;5030081;28;20041;-74
2023/05/31 06:03:49;;;;;;;6.03;2.42;;;;;;;16.67;44.78;98822.50;5023093;28;20045;-74
2023/05/31 06:06:16;;;;;;;10.20;2.95;;;;;;;16.81;44.01;98818.19;4999133;28;20552;-74
2023/05/31 06:08:46;;;;;;;3.97;2.47;;;;;;;16.55;43.65;98820.88;5010108;28;20083;-74
2023/05/31 06:11:11;;;;;;;9.32;2.78;;;;;;;16.79;43.56;98826.63;5035364;28;20032;-73
2023/05/31 06:13:37;;;;;;;5.45;2.78;;;;;;;16.92;42.48;98825.31;5012800;28;20385;-74
2023/05/31 06:16:05;;;;;;;5.47;2.42;;;;;;;17.18;42.67;98818.78;4998694;28;20029;-73
2023/05/31 06:18:30;;;;;;;5.30;2.60;;;;;;;17.12;42.56;98819.88;4983187;28;20056;-74
2023/05/31 06:20:56;;;;;;;6.32;2.72;;;;;;;17.22;42.34;98825.34;5000364;28;20064;-74
2023/05/31 06:23:21;;;;;;;7.68;2.33;;;;;;;17.16;42.75;98815.53;5007114;28;20034;-74
2023/05/31 06:25:47;;;;;;;4.38;2.30;;;;;;;17.45;42.08;98818.53;5015130;28;20045;-74
2023/05/31 06:28:12;;;;;;;6.60;3.08;;;;;;;17.41;41.96;98812.78;5014895;28;20021;-74
2023/05/31 06:30:41;;;;;;;7.07;2.70;;;;;;;17.54;42.05;98822.34;5017125;28;20124;-74
2023/05/31 06:33:07;;;;;;;9.23;2.80;;;;;;;17.57;40.45;98814.47;5034061;28;20036;-73
2023/05/31 06:35:33;;;;;;;3.92;2.40;;;;;;;17.62;41.61;98809.00;5018359;28;20037;-74
2023/05/31 06:37:59;;;;;;;3.72;2.05;;;;;;;17.59;41.67;98820.47;5052693;28;20103;-74
2023/05/31 06:40:25;;;;;;;6.82;4.78;;;;;;;17.83;41.26;98816.03;4996938;28;20124;-74
2023/05/31 06:42:50;;;;;;;9.45;2.70;;;;;;;18.02;40.63;98818.19;5006384;28;20462;-74
2023/05/31 06:45:45;;;;;;;5.07;2.67;;;;;;;18.03;40.55;98825.25;4980952;28;20069;-74
2023/05/31 06:48:33;;;;;;;8.98;2.65;;;;;;;17.92;39.89;98819.81;5018400;28;20052;-74
2023/05/31 06:51:33;;;;;;;6.25;2.42;;;;;;;18.29;39.46;98824.09;5035183;28;20040;-74
2023/05/31 06:54:22;;;;;;;3.83;2.50;;;;;;;18.04;39.73;98821.44;5040028;28;20055;-74
2023/05/31 06:56:50;;;;;;;4.78;2.40;;;;;;;18.45;40.19;98817.47;5021432;28;20036;-74
2023/05/31 06:59:16;;;;;;;3.33;2.20;;;;;;;18.27;39.68;98818.09;5004420;28;20029;-74
2023/05/31 07:01:42;;;;;;;5.28;2.60;;;;;;;18.36;39.22;98809.06;5021165;28;20060;-74
2023/05/31 07:04:07;;;;;;;6.45;2.83;;;;;;;18.53;39.32;98808.72;5020728;28;20057;-74
2023/05/31 07:06:33;;;;;;;7.05;2.55;;;;;;;18.42;39.52;98818.03;5017586;28;20036;-74
2023/05/31 07:08:59;;;;;;;7.32;3.10;;;;;;;18.33;38.61;98814.25;5004740;28;20139;-74
2023/05/31 07:11:32;;;;;;;6.38;2.58;;;;;;;18.31;37.81;98811.81;5018752;28;20033;-74
2023/05/31 07:14:01;;;;;;;5.68;2.70;;;;;;;18.60;38.65;98811.94;5003939;28;20047;-74
2023/05/31 07:16:27;;;;;;;5.00;2.40;;;;;;;18.56;37.47;98808.97;5024715;28;20036;-74
2023/05/31 07:18:55;;;;;;;7.20;2.50;;;;;;;18.39;37.93;98802.22;5021422;28;20037;-74
2023/05/31 07:21:22;;;;;;;8.88;2.70;;;;;;;18.97;38.85;98806.84;5017862;28;20055;-74
2023/05/31 07:23:48;;;;;;;8.63;2.85;;;;;;;18.78;38.16;98802.31;5032402;28;20036;-74
2023/05/31 07:26:15;;;;;;;6.47;2.42;;;;;;;19.11;39.59;98810.53;5002229;28;20049;-74
2023/05/31 07:28:44;;;;;;;5.43;2.58;;;;;;;19.05;37.92;98798.03;5046378;28;20037;-74
2023/05/31 07:31:09;;;;;;;4.25;2.60;;;;;;;19.21;38.58;98799.53;5016252;28;20017;-75
2023/05/31 07:33:35;;;;;;;8.25;3.00;;;;;;;19.15;38.42;98795.22;5012170;28;20478;-74
2023/05/31 07:36:00;;;;;;;7.18;3.05;;;;;;;19.20;38.31;98797.94;5025825;28;20025;-75
2023/05/31 07:38:26;;;;;;;7.28;2.55;;;;;;;19.26;38.72;98801.41;5028817;28;20045;-74
2023/05/31 07:40:52;;;;;;;8.00;3.10;;;;;;;19.26;39.00;98807.69;5009632;28;20025;-74
2023/05/31 07:43:21;;;;;;;6.25;2.40;;;;;;;19.39;36.72;98789.06;5028173;28;20105;-74
2023/05/31 07:45:49;;;;;;;5.43;2.22;;;;;;;19.27;37.89;98794.84;5019049;28;20032;-73
2023/05/31 07:48:16;;;;;;;8.88;3.17;;;;;;;19.64;37.70;98792.38;5033376;28;20048;-73
2023/05/31 07:50:42;;;;;;;5.15;2.33;;;;;;;19.71;37.86;98794.75;5036284;28;20060;-74
2023/05/31 07:53:07;;;;;;;5.45;2.53;;;;;;;19.58;36.64;98785.31;5019199;28;20033;-75
2023/05/31 07:55:33;;;;;;;6.53;2.65;;;;;;;19.62;37.42;98785.56;5040110;28;20029;-74
2023/05/31 07:57:58;;;;;;;5.40;2.38;;;;;;;19.81;37.65;98787.25;5033674;28;20052;-74
2023/05/31 08:00:23;;;;;;;6.03;2.55;;;;;;;19.93;37.42;98789.56;5033475;28;20021;-74
2023/05/31 08:02:49;;;;;;;5.22;2.35;;;;;;;19.92;37.35;98777.03;5034460;28;20041;-75
2023/05/31 08:05:14;;;;;;;6.32;2.47;;;;;;;19.70;36.33;98773.97;5039398;28;20459;-74
2023/05/31 08:07:40;;;;;;;6.13;2.08;;;;;;;19.69;35.29;98778.66;5037108;28;20087;-75
2023/05/31 08:10:06;;;;;;;8.45;2.85;;;;;;;20.00;35.29;98790.88;5017382;28;20017;-74
2023/05/31 08:12:31;;;;;;;7.00;2.50;;;;;;;20.14;34.28;98785.50;5035158;28;20068;-74
2023/05/31 08:14:57;;;;;;;7.43;2.60;;;;;;;20.49;35.54;98782.34;5004658;28;20021;-73
2023/05/31 08:17:22;;;;;;;4.88;2.42;;;;;;;20.25;35.81;98769.84;5025088;28;20116;-74
2023/05/31 08:19:48;;;;;;;6.85;2.85;;;;;;;20.20;34.30;98787.09;5042607;28;20025;-74
2023/05/31 08:22:13;;;;;;;6.15;2.35;;;;;;;20.20;35.33;98789.81;5055017;28;20094;-75
2023/05/31 08:24:38;;;;;;;7.45;2.72;;;;;;;20.44;37.09;98785.16;5047675;28;20029;-74
2023/05/31 08:27:05;;;;;;;6.88;2.47;;;;;;;20.52;34.93;98787.25;5048790;28;20041;-73
2023/05/31 08:29:30;;;;;;;6.20;2.97;;;;;;;20.26;33.80;98780.47;5035142;28;20029;-74
2023/05/31 08:31:56;;;;;;;7.43;2.83;;;;;;;20.51;34.67;98777.41;5053201;28;20391;-74
2023/05/31 08:34:21;;;;;;;6.63;4.22;;;;;;;20.40;34.46;98778.66;5024872;28;20049;-74
2023/05/31 08:36:47;;;;;;;5.65;3.03;;;;;;;20.64;34.26;98776.69;5052823;28;20509;-74
2023/05/31 08:39:13;;;;;;;4.63;2.55;;;;;;;20.57;33.16;98768.03;5034940;28;20075;-74
2023/05/31 08:41:48;;;;;;;5.18;2.88;;;;;;;20.40;35.04;98773.19;5049461;28;20044;-74
2023/05/31 08:44:14;;;;;;;5.22;2.63;;;;;;;20.61;34.54;98769.06;5036524;28;20163;-75
2023/05/31 08:46:41;;;;;;;5.65;2.70;;;;;;;20.63;34.10;98760.56;5036856;28;20116;-74
2023/05/31 08:49:10;;;;;;;8.25;2.25;;;;;;;20.90;33.69;98765.34;5054602;28;20421;-74
2023/05/31 08:51:36;;;;;;;8.65;2.70;;;;;;;21.09;34.88;98768.91;5037025;28;20041;-74
2023/05/31 08:54:02;;;;;;;6.80;3.00;;;;;;;20.71;34.15;98767.28;5019626;28;20091;-75
2023/05/31 08:56:28;;;;;;;7.28;2.83;;;;;;;20.75;34.73;98762.84;5023353;28;20033;-74
2023/05/31 08:58:54;;;;;;;6.72;2.95;;;;;;;20.86;33.57;98759.66;5044510;28;20037;-74
2023/05/31 09:01:20;;;;;;;5.60;3.00;;;;;;;20.70;32.76;98749.25;5010899;28;20076;-75
2023/05/31 09:03:45;;;;;;;6.80;2.45;;;;;;;21.34;33.84;98749.31;5019704;28;20036;-75
2023/05/31 09:06:11;;;;;;;7.82;2.30;;;;;;;21.22;32.05;98746.22;5023143;28;20083;-74
2023/05/31 09:08:37;;;;;;;4.80;2.42;;;;;;;21.36;31.86;98741.59;5036376;28;20037;-74
2023/05/31 09:11:02;;;;;;;6.18;2.50;;;;;;;21.46;32.31;98752.38;5023395;28;20035;-75
2023/05/31 09:13:27;;;;;;;4.75;2.50;;;;;;;21.35;32.49;98745.47;5035911;28;20072;-75
2023/05/31 09:15:53;;;;;;;5.60;2.80;;;;;;;21.58;31.46;98744.50;5053282;28;20036;-75
2023/05/31 09:18:20;;;;;;;6.05;2.97;;;;;;;21.58;33.40;98741.75;5027245;28;20037;-75
2023/05/31 09:20:50;;;;;;;5.57;2.50;;;;;;;22.05;30.88;98742.53;5029800;28;20025;-75
2023/05/31 09:23:18;;;;;;;7.75;2.80;;;;;;;21.92;31.68;98728.50;5025575;28;20035;-75
2023/05/31 09:25:48;;;;;;;8.30;2.72;;;;;;;21.88;30.75;98732.97;5023056;28;20077;-75
2023/05/31 09:28:14;;;;;;;6.10;3.00;;;;;;;21.74;30.01;98731.31;5019750;28;20064;-75
2023/05/31 09:30:40;;;;;;;6.10;2.45;;;;;;;22.04;29.84;98741.69;5032319;28;20044;-75
2023/05/31 09:33:07;;;;;;;7.07;2.63;;;;;;;21.90;29.19;98736.22;5024377;28;20128;-75
2023/05/31 09:35:32;;;;;;;7.72;2.85;;;;;;;21.95;29.31;98727.91;5029726;28;20060;-75
2023/05/31 09:38:03;;;;;;;5.47;2.15;;;;;;;22.02;29.64;98728.31;5000565;28;20471;-74
2023/05/31 09:40:30;;;;;;;5.63;2.58;;;;;;;21.95;29.31;98724.34;5020831;28;20047;-75
2023/05/31 09:42:55;;;;;;;5.38;2.45;;;;;;;22.62;30.15;98725.38;5019083;28;20111;-75
2023/05/31 09:45:21;;;;;;;4.32;2.28;;;;;;;22.10;28.47;98736.94;5035610;28;20115;-75
2023/05/31 09:47:48;;;;;;;5.38;2.63;;;;;;;22.14;28.79;98724.22;5024510;28;20079;-75
2023/05/31 09:50:16;;;;;;;9.38;2.35;;;;;;;22.36;28.75;98727.84;5012464;28;20041;-75
2023/05/31 09:52:46;;;;;;;8.07;2.72;;;;;;;22.33;29.28;98711.19;5027390;28;20458;-75
2023/05/31 09:55:14;;;;;;;9.95;2.80;;;;;;;22.74;29.77;98711.91;5021660;28;20033;-75
2023/05/31 09:57:40;;;;;;;6.35;2.20;;;;;;;22.55;29.46;98714.78;5007102;28;20033;-75
2023/05/31 10:00:17;;;;;;;3.72;2.30;;;;;;;22.79;26.90;98706.31;5004760;28;20029;-74
2023/05/31 10:02:44;;;;;;;5.75;2.40;;;;;;;23.03;27.61;98709.56;5013071;28;20099;-75
2023/05/31 10:05:11;;;;;;;8.85;2.67;;;;;;;22.83;28.90;98715.53;5027927;28;20029;-75
2023/05/31 10:07:38;;;;;;;8.00;2.38;;;;;;;23.30;28.55;98714.91;5012529;28;20047;-75
2023/05/31 10:10:05;;;;;;;4.05;2.33;;;;;;;23.17;27.49;98698.50;5022586;28;20375;-74
2023/05/31 10:12:35;;;;;;;6.32;2.95;;;;;;;23.61;29.08;98703.13;5017914;28;20040;-75
2023/05/31 10:15:02;;;;;;;5.15;2.60;;;;;;;23.51;28.35;98711.63;5022839;28;20547;-74
2023/05/31 10:17:29;;;;;;;4.75;2.40;;;;;;;23.35;27.47;98706.56;5005310;28;20067;-75
2023/05/31 10:20:04;;;;;;;5.20;2.30;;;;;;;23.80;28.18;98706.44;5010905;28;20022;-75
2023/05/31 10:22:31;;;;;;;5.65;2.40;;;;;;;23.36;26.63;98707.38;5029241;28;20471;-74
2023/05/31 10:25:06;;;;;;;6.35;2.63;;;;;;;23.47;26.59;98702.41;5020494;28;20479;-75
2023/05/31 10:27:42;;;;;;;6.25;2.72;;;;;;;23.28;25.46;98695.16;5019960;28;20557;-74
2023/05/31 10:30:09;;;;;;;5.35;2.30;;;;;;;23.87;26.90;98698.53;5025603;28;20095;-75
2023/05/31 10:32:45;;;;;;;4.15;2.60;;;;;;;23.98;26.93;98702.63;5022644;28;20075;-75
2023/05/31 10:35:11;;;;;;;4.38;2.20;;;;;;;23.75;27.54;98703.81;5004686;28;20449;-74
2023/05/31 10:37:42;;;;;;;4.32;2.30;;;;;;;23.60;25.38;98691.31;5010178;28;20037;-74
2023/05/31 10:40:12;;;;;;;4.95;2.20;;;;;;;23.45;25.92;98688.97;5030870;28;20082;-75
2023/05/31 10:43:20;;;;;;;6.22;2.20;;;;;;;24.09;25.51;98673.69;5025438;28;20156;-75
2023/05/31 10:45:45;;;;;;;;;;;;;;;23.28;26.66;98684.16;5025707;28;20138;-74
2023/05/31 10:48:45;;;;;;;6.53;2.42;;;;;;;24.10;27.36;98688.25;5033237;28;19955;-74
2023/05/31 10:51:12;;;;;;;5.30;2.63;;;;;;;24.33;26.01;98665.81;5010953;28;20136;-74
2023/05/31 10:53:38;;;;;;;6.00;2.35;;;;;;;24.69;25.58;98674.53;5020996;28;20046;-75
2023/05/31 10:56:09;;;;;;;6.55;2.55;;;;;;;24.79;26.89;98667.13;5021841;28;20087;-75
2023/05/31 10:58:39;;;;;;;4.18;2.40;;;;;;;24.95;26.81;98663.53;5039803;28;20037;-74
2023/05/31 11:01:06;;;;;;;4.60;2.28;;;;;;;24.26;28.15;98665.47;5030471;28;20045;-75
2023/05/31 11:03:36;;;;;;;6.75;2.83;;;;;;;24.39;27.11;98653.47;5003236;28;20026;-74
2023/05/31 11:06:03;;;;;;;7.53;3.85;;;;;;;23.92;26.44;98668.13;5020958;28;20037;-75
2023/05/31 11:08:30;;;;;;;5.90;2.55;;;;;;;23.92;25.86;98665.38;5026115;28;20044;-75
2023/05/31 11:11:27;;;;;;;5.03;2.75;;;;;;;24.59;25.91;98650.09;5012634;28;20041;-75
2023/05/31 11:14:00;;;;;;;7.05;3.65;;;;;;;24.00;25.55;98651.63;5011050;28;20045;-75
2023/05/31 11:16:27;;;;;;;7.70;3.45;;;;;;;24.31;25.87;98640.53;5035814;28;20067;-74
2023/05/31 11:19:06;;;;;;;5.63;3.28;;;;;;;24.30;25.70;98655.44;5033991;28;20021;-74
2023/05/31 11:21:51;;;;;;;4.90;2.83;;;;;;;24.22;24.96;98653.50;5051127;28;20032;-74
2023/05/31 11:24:45;;;;;;;7.38;3.00;;;;;;;24.41;26.14;98645.69;5033041;28;20467;-75
2023/05/31 11:27:11;;;;;;;6.32;3.05;;;;;;;24.61;25.83;98649.78;5038414;28;20049;-74
2023/05/31 11:29:52;;;;;;;8.93;4.03;;;;;;;24.85;24.71;98643.78;5013815;28;20032;-75
2023/05/31 11:32:22;;;;;;;4.45;2.33;;;;;;;25.36;24.21;98640.91;5050099;28;20490;-75
2023/05/31 11:34:53;;;;;;;4.40;2.20;;;;;;;25.39;25.03;98643.00;5032952;28;20029;-74
2023/05/31 11:37:21;;;;;;;8.30;2.55;;;;;;;25.47;24.24;98639.41;5006983;28;20395;-74